Time;durP1;ratioP1;P1;durP2;ratioP2;P2;SDS_P1;SDS_P2;PMS_P1;PMS_P2;Temp;Humidity;BMP_temperature;BMP_pressure;BME280_temperature;BME280_humidity;BME280_pressure;Samples;Min_cycle;Max_cycle;Signal;HPM_P1;HPM_P2
2022/04/17 00:00:14;;;;;;;3.33;1.40;;;7.90;71.20;;;;;;5003414;28;20041;-85
2022/04/17 00:02:54;;;;;;;3.25;1.30;;;7.90;71.20;;;;;;5004477;28;20041;-78
2022/04/17 00:05:21;;;;;;;3.22;1.63;;;7.80;71.40;;;;;;5016918;28;20018;-77
2022/04/17 00:07:47;;;;;;;3.38;1.65;;;7.80;71.70;;;;;;4999293;28;20029;-78
2022/04/17 00:10:14;;;;;;;3.75;1.70;;;7.70;71.90;;;;;;5017536;28;20365;-77
2022/04/17 00:12:41;;;;;;;3.28;1.45;;;7.70;72.00;;;;;;5001652;28;20017;-77
2022/04/17 00:15:09;;;;;;;2.90;1.15;;;7.70;72.10;;;;;;4987629;28;20041;-77
2022/04/17 00:17:44;;;;;;;2.72;1.63;;;7.60;72.10;;;;;;4987297;28;20044;-77
2022/04/17 00:20:15;;;;;;;2.83;1.35;;;7.60;72.10;;;;;;5000176;28;20049;-77
2022/04/17 00:22:42;;;;;;;2.78;1.58;;;7.50;72.20;;;;;;5020211;28;20033;-76
2022/04/17 00:25:11;;;;;;;3.92;1.90;;;7.50;72.70;;;;;;4969958;28;20393;-76
2022/04/17 00:27:39;;;;;;;3.97;2.45;;;7.50;72.90;;;;;;4985523;28;20037;-77
2022/04/17 00:30:07;;;;;;;5.93;2.13;;;7.50;72.90;;;;;;5001724;28;20025;-76
2022/04/17 00:32:34;;;;;;;5.05;1.92;;;7.50;72.90;;;;;;5025773;28;20025;-76
2022/04/17 00:35:03;;;;;;;3.28;1.27;;;7.40;73.00;;;;;;5003077;28;20022;-76
2022/04/17 00:37:29;;;;;;;3.85;1.60;;;7.40;72.90;;;;;;5018640;28;20040;-76
2022/04/17 00:39:56;;;;;;;2.97;1.60;;;7.40;73.10;;;;;;4971607;28;20037;-76
2022/04/17 00:42:22;;;;;;;2.38;1.20;;;7.40;73.10;;;;;;4984427;28;20040;-76
2022/04/17 00:44:49;;;;;;;3.92;1.23;;;7.30;73.10;;;;;;4970106;28;20029;-76
2022/04/17 00:47:16;;;;;;;1.80;1.10;;;7.30;73.80;;;;;;4986492;28;20389;-76
2022/04/17 00:49:47;;;;;;;2.13;1.30;;;7.20;73.40;;;;;;4971709;28;20056;-76
2022/04/17 00:52:14;;;;;;;2.60;1.50;;;7.20;73.60;;;;;;4970157;28;20029;-76
2022/04/17 00:54:46;;;;;;;4.35;1.90;;;7.20;73.40;;;;;;5001432;28;20017;-76
2022/04/17 00:57:16;;;;;;;3.88;1.42;;;7.20;73.70;;;;;;4969454;28;20045;-76
2022/04/17 00:59:44;;;;;;;4.65;1.50;;;7.10;73.70;;;;;;4982553;28;20038;-76
2022/04/17 01:02:12;;;;;;;4.25;1.38;;;7.10;73.90;;;;;;5001541;28;20029;-76
2022/04/17 01:04:41;;;;;;;2.95;1.10;;;7.00;73.90;;;;;;4969774;28;20500;-76
2022/04/17 01:07:10;;;;;;;4.30;1.50;;;7.00;73.90;;;;;;4984359;28;20041;-76
2022/04/17 01:09:37;;;;;;;3.15;1.42;;;7.00;74.00;;;;;;4982314;28;20014;-77
2022/04/17 01:12:08;;;;;;;3.47;1.50;;;6.90;74.10;;;;;;5001115;28;20026;-76
2022/04/17 01:14:36;;;;;;;3.28;1.30;;;6.90;74.30;;;;;;4986789;28;20384;-76
2022/04/17 01:17:03;;;;;;;3.13;1.33;;;6.90;74.90;;;;;;4972012;28;20388;-76
2022/04/17 01:19:45;;;;;;;4.53;1.30;;;6.90;74.50;;;;;;4950404;28;20484;-75
2022/04/17 01:22:22;;;;;;;3.03;1.48;;;6.90;74.70;;;;;;5020495;28;20029;-76
2022/04/17 01:27:37;;;;;;;1.80;0.93;;;6.80;74.70;;;;;;5023318;28;20034;-76
2022/04/17 01:30:11;;;;;;;2.22;1.10;;;6.70;74.70;;;;;;5004341;28;20022;-78
2022/04/17 01:32:38;;;;;;;2.92;1.25;;;6.70;74.70;;;;;;4990101;28;20550;-76
2022/04/17 01:35:12;;;;;;;3.13;1.70;;;6.70;74.80;;;;;;4990556;28;20495;-76
2022/04/17 01:37:48;;;;;;;4.60;1.60;;;6.60;74.90;;;;;;4974148;28;20048;-77
2022/04/17 01:40:24;;;;;;;3.63;1.48;;;6.60;75.10;;;;;;5005082;28;20410;-77
2022/04/17 01:43:26;;;;;;;2.72;1.30;;;6.60;75.20;;;;;;5004626;28;20048;-76
2022/04/17 01:45:53;;;;;;;3.13;1.20;;;6.60;75.20;;;;;;5005363;28;20365;-77
2022/04/17 01:48:29;;;;;;;2.40;1.40;;;6.50;75.30;;;;;;5006182;28;20048;-77
2022/04/17 01:51:06;;;;;;;3.28;1.30;;;6.40;75.40;;;;;;5020950;28;20038;-77
2022/04/17 01:53:35;;;;;;;2.38;0.93;;;6.40;75.60;;;;;;5009763;28;20048;-77
2022/04/17 01:56:02;;;;;;;3.00;1.50;;;6.40;75.60;;;;;;5005526;28;20511;-77
2022/04/17 01:58:29;;;;;;;2.72;1.05;;;6.30;75.70;;;;;;4991514;28;20025;-77
2022/04/17 02:00:56;;;;;;;3.45;1.58;;;6.30;75.70;;;;;;5003983;28;20029;-77
2022/04/17 02:03:25;;;;;;;4.70;1.50;;;6.30;76.00;;;;;;5023312;28;20017;-77
2022/04/17 02:06:04;;;;;;;5.82;1.98;;;6.20;76.00;;;;;;4991555;28;20484;-77
2022/04/17 02:08:34;;;;;;;3.67;1.30;;;6.20;76.30;;;;;;5005206;28;20028;-77
2022/04/17 02:11:05;;;;;;;5.35;1.35;;;6.20;76.30;;;;;;5005619;28;20025;-77
2022/04/17 02:13:36;;;;;;;3.10;1.13;;;6.10;76.60;;;;;;5000627;28;20144;-77
2022/04/17 02:16:11;;;;;;;3.97;1.70;;;6.10;76.40;;;;;;5023759;28;20014;-76
2022/04/17 02:18:43;;;;;;;3.93;1.77;;;6.00;76.50;;;;;;5022121;28;20038;-77
2022/04/17 02:21:19;;;;;;;4.43;1.52;;;6.00;76.60;;;;;;5023439;28;20033;-77
2022/04/17 02:24:08;;;;;;;3.05;2.03;;;6.00;76.90;;;;;;4987834;28;20056;-85
2022/04/17 02:27:00;;;;;;;4.95;1.77;;;6.00;77.00;;;;;;5023524;28;20042;-85
2022/04/17 02:29:52;;;;;;;3.83;2.25;;;6.00;77.10;;;;;;5009463;28;20029;-85
2022/04/17 02:32:22;;;;;;;3.80;1.87;;;6.00;77.40;;;;;;5026508;28;20041;-85
2022/04/17 02:34:51;;;;;;;3.63;1.80;;;5.90;77.20;;;;;;5007644;28;20040;-84
2022/04/17 02:37:21;;;;;;;4.20;1.67;;;5.90;77.30;;;;;;4978380;28;20036;-83
2022/04/17 02:39:54;;;;;;;3.27;1.40;;;5.80;77.40;;;;;;5007173;28;20041;-83
2022/04/17 02:42:22;;;;;;;4.50;2.30;;;5.90;77.60;;;;;;5026322;28;20033;-84
2022/04/17 02:44:55;;;;;;;4.27;2.23;;;5.70;77.70;;;;;;4991098;28;20045;-86
2022/04/17 02:50:24;;;;;;;3.67;2.28;;;5.60;78.20;;;;;;5023724;28;20018;-84
2022/04/17 02:52:57;;;;;;;4.20;2.60;;;5.70;78.20;;;;;;4978218;28;20030;-84
2022/04/17 02:55:28;;;;;;;;;;;5.60;78.40;;;;;;5009148;28;20041;-84
2022/04/17 02:57:56;;;;;;;5.65;2.25;;;5.60;78.30;;;;;;4977436;28;19932;-84
2022/04/17 03:00:30;;;;;;;3.00;1.90;;;5.60;78.30;;;;;;4991659;28;20049;-85
2022/04/17 03:06:10;;;;;;;5.47;2.70;;;5.50;78.50;;;;;;5026151;28;20049;-84
2022/04/17 03:08:48;;;;;;;4.80;2.23;;;5.40;78.90;;;;;;5027283;28;20056;-85
2022/04/17 03:11:27;;;;;;;5.30;2.28;;;5.40;79.00;;;;;;5004354;28;20366;-84
2022/04/17 03:13:54;;;;;;;4.03;2.37;;;5.40;79.10;;;;;;4989950;28;20037;-84
2022/04/17 03:16:25;;;;;;;4.97;1.90;;;5.40;79.20;;;;;;5010853;28;20052;-85
2022/04/17 03:18:55;;;;;;;4.67;1.90;;;5.30;79.30;;;;;;5026280;28;20056;-84
2022/04/17 03:21:22;;;;;;;4.47;2.08;;;5.30;79.30;;;;;;4982169;28;20041;-84
2022/04/17 03:23:53;;;;;;;5.32;2.15;;;5.30;79.70;;;;;;4985424;28;20029;-83
2022/04/17 03:26:25;;;;;;;6.00;2.50;;;5.30;79.80;;;;;;5026816;28;20032;-84
2022/04/17 03:29:11;;;;;;;5.28;2.50;;;5.30;79.80;;;;;;5021863;28;20026;-78
2022/04/17 03:31:39;;;;;;;5.00;2.30;;;5.30;79.80;;;;;;4995179;28;20369;-77
2022/04/17 03:34:19;;;;;;;3.93;1.87;;;5.30;79.90;;;;;;5012568;28;20040;-77
2022/04/17 03:36:47;;;;;;;4.70;2.00;;;5.30;79.80;;;;;;4999164;28;20033;-76
2022/04/17 03:39:21;;;;;;;5.70;2.47;;;5.20;79.80;;;;;;5018568;28;20045;-77
2022/04/17 03:42:11;;;;;;;3.67;1.57;;;5.30;80.60;;;;;;5005273;28;21210;-76
2022/04/17 03:44:41;;;;;;;6.53;2.97;;;5.20;80.00;;;;;;5022698;28;20026;-77
2022/04/17 03:47:58;;;;;;;3.33;1.97;;;5.20;80.10;;;;;;4982604;28;20042;-77
2022/04/17 03:50:29;;;;;;;7.03;2.70;;;5.20;80.10;;;;;;4949647;28;20180;-77
2022/04/17 03:53:25;;;;;;;5.27;3.50;;;5.20;80.20;;;;;;4984901;28;20049;-77
2022/04/17 03:56:01;;;;;;;7.90;3.80;;;5.20;80.50;;;;;;4985086;28;20061;-77
2022/04/17 03:58:29;;;;;;;7.27;3.90;;;5.20;80.70;;;;;;4942807;28;20041;-77
2022/04/17 04:01:16;;;;;;;4.73;3.43;;;5.30;80.90;;;;;;4964813;28;20034;-77
2022/04/17 04:03:45;;;;;;;5.77;3.70;;;5.30;81.00;;;;;;4965690;28;20046;-77
2022/04/17 04:06:21;;;;;;;5.83;3.10;;;5.30;81.20;;;;;;4968942;28;20547;-77
2022/04/17 04:09:06;;;;;;;6.77;3.70;;;5.40;81.20;;;;;;4983653;28;20568;-77
2022/04/17 04:12:02;;;;;;;5.67;3.10;;;5.40;81.10;;;;;;4963366;28;20046;-77
2022/04/17 04:14:36;;;;;;;4.53;2.78;;;5.40;81.00;;;;;;5001105;28;20413;-77
2022/04/17 04:17:41;;;;;;;8.50;4.38;;;5.40;81.10;;;;;;4998703;28;20544;-77
2022/04/17 04:21:28;;;;;;;5.97;2.50;;;5.40;81.30;;;;;;4972095;28;20486;-78
2022/04/17 04:23:56;;;;;;;5.23;2.57;;;5.30;81.30;;;;;;4946920;28;20038;-77
2022/04/17 04:26:22;;;;;;;6.63;2.97;;;5.30;81.20;;;;;;4984328;28;20338;-77
2022/04/17 04:28:57;;;;;;;8.90;3.37;;;5.30;81.40;;;;;;4984448;28;20045;-77
2022/04/17 04:31:25;;;;;;;6.70;4.50;;;5.30;81.60;;;;;;4989957;28;21589;-76
2022/04/17 04:34:20;;;;;;;6.10;3.83;;;5.30;82.10;;;;;;5014953;28;20022;-78
2022/04/17 04:36:55;;;;;;;8.20;3.83;;;5.30;82.20;;;;;;5000665;28;20300;-79
2022/04/17 04:42:24;;;;;;;6.50;4.13;;;5.30;82.40;;;;;;4999742;28;20511;-76
2022/04/17 04:47:42;;;;;;;4.30;2.97;;;5.40;82.50;;;;;;5014670;28;20037;-77
2022/04/17 04:50:42;;;;;;;6.90;4.10;;;5.30;82.30;;;;;;5003041;28;20048;-77
2022/04/17 04:53:11;;;;;;;7.20;3.60;;;5.30;82.60;;;;;;4999361;28;20512;-77
2022/04/17 04:55:42;;;;;;;6.37;3.63;;;5.30;82.80;;;;;;5014637;28;20041;-76
2022/04/17 04:58:23;;;;;;;6.77;3.60;;;5.30;82.80;;;;;;5004349;28;20017;-76
2022/04/17 05:01:07;;;;;;;7.33;3.93;;;5.30;82.80;;;;;;5000336;28;20034;-77
2022/04/17 05:03:34;;;;;;;;;;;5.30;82.90;;;;;;4997662;28;20054;-77
2022/04/17 05:06:12;;;;;;;6.47;2.83;;;5.40;82.80;;;;;;4996143;28;20548;-77
2022/04/17 05:09:08;;;;;;;5.17;3.27;;;5.40;82.70;;;;;;4964223;28;20053;-77
2022/04/17 05:11:41;;;;;;;7.35;3.72;;;5.40;82.90;;;;;;4980875;28;20041;-77
2022/04/17 05:14:21;;;;;;;;;;;;;;;;;;;;;
2022/04/17 05:17:12;;;;;;;7.07;4.63;;;5.60;83.20;;;;;;4991720;28;20106;-76
2022/04/17 05:19:46;;;;;;;7.43;4.13;;;5.70;83.20;;;;;;4981565;28;20030;-76
2022/04/17 05:22:31;;;;;;;7.23;4.27;;;5.70;83.10;;;;;;4962742;28;20034;-77
2022/04/17 05:25:05;;;;;;;8.30;4.90;;;5.90;83.20;;;;;;4962921;28;20029;-77
2022/04/17 05:27:32;;;;;;;8.00;4.93;;;5.90;83.10;;;;;;4983351;28;20046;-77
2022/04/17 05:29:59;;;;;;;7.70;4.30;;;6.00;83.10;;;;;;4976592;28;20053;-77
2022/04/17 05:32:26;;;;;;;5.50;3.77;;;6.10;83.20;;;;;;4993696;28;20025;-78
2022/04/17 05:34:52;;;;;;;7.10;4.27;;;6.10;83.20;;;;;;4978710;28;20034;-77
2022/04/17 05:37:27;;;;;;;7.13;4.27;;;6.20;83.10;;;;;;4971532;28;20050;-77
2022/04/17 05:39:56;;;;;;;7.87;4.37;;;6.20;83.20;;;;;;4980703;28;20041;-77
2022/04/17 05:42:27;;;;;;;8.10;4.73;;;6.30;83.20;;;;;;5017362;28;20519;-77
2022/04/17 05:44:57;;;;;;;7.88;4.28;;;6.40;83.20;;;;;;4987246;28;20032;-76
2022/04/17 05:47:29;;;;;;;7.25;4.60;;;6.40;83.00;;;;;;5003652;28;20040;-77
2022/04/17 05:50:01;;;;;;;7.32;4.72;;;6.50;82.90;;;;;;5015509;28;20032;-77
2022/04/17 05:52:28;;;;;;;9.57;4.78;;;6.60;82.90;;;;;;5002749;28;20030;-77
2022/04/17 05:54:56;;;;;;;7.50;4.50;;;6.70;82.90;;;;;;4983535;28;20037;-77
2022/04/17 05:57:25;;;;;;;6.57;4.65;;;6.80;82.70;;;;;;4985341;28;20061;-77
2022/04/17 06:00:03;;;;;;;6.80;4.22;;;7.00;82.60;;;;;;5016247;28;20029;-77
2022/04/17 06:02:51;;;;;;;7.97;3.85;;;7.20;82.40;;;;;;5018505;28;20040;-77
2022/04/17 06:05:21;;;;;;;8.40;5.13;;;7.40;82.10;;;;;;5014118;28;20033;-77
2022/04/17 06:07:53;;;;;;;8.60;5.15;;;7.60;81.30;;;;;;5017563;28;23279;-77
2022/04/17 06:10:25;;;;;;;7.93;5.20;;;7.80;80.60;;;;;;4999091;28;20029;-77
2022/04/17 06:13:07;;;;;;;7.13;4.57;;;7.90;80.10;;;;;;5019885;28;20033;-77
2022/04/17 06:15:58;;;;;;;8.93;5.45;;;8.10;80.10;;;;;;5032929;28;20056;-78
2022/04/17 06:18:25;;;;;;;10.57;5.82;;;8.40;79.90;;;;;;5022798;28;20029;-76
2022/04/17 06:21:00;;;;;;;6.93;4.65;;;8.50;78.70;;;;;;4996707;28;20028;-75
2022/04/17 06:23:28;;;;;;;7.65;4.90;;;8.60;78.50;;;;;;5021738;28;20349;-79
2022/04/17 06:25:54;;;;;;;9.00;5.75;;;8.70;78.20;;;;;;5005065;28;20020;-78
2022/04/17 06:28:20;;;;;;;8.00;5.28;;;8.90;77.80;;;;;;4987863;28;20056;-78
2022/04/17 06:30:47;;;;;;;8.43;5.72;;;9.00;77.40;;;;;;4991599;28;20018;-78
2022/04/17 06:33:13;;;;;;;7.65;5.28;;;9.10;76.70;;;;;;5005531;28;20026;-78
2022/04/17 06:35:40;;;;;;;7.63;4.45;;;9.10;76.60;;;;;;5005342;28;21572;-77
2022/04/17 06:38:10;;;;;;;7.85;5.35;;;9.30;76.70;;;;;;4988540;28;20045;-78
2022/04/17 06:40:37;;;;;;;6.90;4.72;;;9.40;76.40;;;;;;4993024;28;20512;-78
2022/04/17 06:43:07;;;;;;;6.78;4.88;;;9.60;76.20;;;;;;5007340;28;20029;-77
2022/04/17 06:45:36;;;;;;;10.55;5.60;;;9.70;75.40;;;;;;5024663;28;20389;-77
2022/04/17 06:48:17;;;;;;;10.27;4.95;;;9.80;74.80;;;;;;5006530;28;20038;-78
2022/04/17 06:50:45;;;;;;;7.90;4.82;;;10.10;74.80;;;;;;4992179;28;20440;-79
2022/04/17 06:53:12;;;;;;;7.82;4.88;;;10.40;73.90;;;;;;5009615;28;20030;-78
2022/04/17 06:55:39;;;;;;;10.18;5.15;;;10.70;73.00;;;;;;4993037;28;20444;-77
2022/04/17 06:58:07;;;;;;;12.63;5.10;;;10.90;72.10;;;;;;4993698;28;20030;-77
2022/04/17 07:00:35;;;;;;;9.43;4.32;;;10.90;71.00;;;;;;5017906;28;20048;-85
2022/04/17 07:03:01;;;;;;;8.73;5.72;;;10.80;71.40;;;;;;5007357;28;20042;-83
2022/04/17 07:05:28;;;;;;;8.75;4.57;;;10.80;71.00;;;;;;5020344;28;20033;-83
2022/04/17 07:07:59;;;;;;;7.95;4.97;;;10.80;71.50;;;;;;5004208;28;20030;-84
2022/04/17 07:10:26;;;;;;;6.53;3.85;;;10.90;71.80;;;;;;5020385;28;20030;-83
2022/04/17 07:12:54;;;;;;;6.35;4.30;;;11.00;71.70;;;;;;5036974;28;20026;-83
2022/04/17 07:15:21;;;;;;;8.73;5.55;;;11.10;71.40;;;;;;4982821;28;20056;-83
2022/04/17 07:17:47;;;;;;;9.07;5.45;;;11.20;71.50;;;;;;5027003;28;20773;-83
2022/04/17 07:20:15;;;;;;;8.77;5.10;;;11.30;71.10;;;;;;5009295;28;20044;-83
2022/04/17 07:22:47;;;;;;;5.88;4.18;;;11.20;71.10;;;;;;4993694;28;20048;-83
2022/04/17 07:25:27;;;;;;;6.80;5.07;;;11.30;71.00;;;;;;5010224;28;20040;-83
2022/04/17 07:27:55;;;;;;;9.48;5.28;;;11.40;71.60;;;;;;5025049;28;20394;-83
2022/04/17 07:30:23;;;;;;;7.22;4.85;;;11.50;71.40;;;;;;5022385;28;20029;-84
2022/04/17 07:32:52;;;;;;;6.45;5.15;;;11.50;71.20;;;;;;4991171;28;20025;-84
2022/04/17 07:35:21;;;;;;;8.38;5.35;;;11.60;71.40;;;;;;5017969;28;20394;-85
2022/04/17 07:37:53;;;;;;;6.03;4.07;;;11.60;71.40;;;;;;5021693;28;20036;-83
2022/04/17 07:40:25;;;;;;;5.07;3.70;;;11.70;70.50;;;;;;4980231;28;20046;-84
2022/04/17 07:42:53;;;;;;;5.80;3.67;;;11.70;70.70;;;;;;5022330;28;20041;-84
2022/04/17 07:45:24;;;;;;;7.85;2.88;;;11.80;71.00;;;;;;5024742;28;20022;-84
2022/04/17 07:47:55;;;;;;;6.20;3.03;;;12.00;70.00;;;;;;5023912;28;20404;-84
2022/04/17 07:50:39;;;;;;;4.85;3.35;;;12.20;69.90;;;;;;5005945;28;20034;-84
2022/04/17 07:53:16;;;;;;;7.35;3.50;;;12.40;68.80;;;;;;5008932;28;20049;-85
2022/04/17 07:55:44;;;;;;;6.53;4.10;;;12.40;67.30;;;;;;5023267;28;20385;-85
2022/04/17 07:58:24;;;;;;;6.72;3.28;;;12.40;67.50;;;;;;5021709;28;20038;-86
2022/04/17 08:00:57;;;;;;;6.30;2.97;;;12.50;67.50;;;;;;5005767;28;20055;-87
2022/04/17 08:03:45;;;;;;;4.55;2.97;;;12.50;67.60;;;;;;5021856;28;20401;-86
2022/04/17 08:06:21;;;;;;;5.28;4.07;;;12.70;67.60;;;;;;5022335;28;20048;-88
2022/04/17 08:08:51;;;;;;;6.97;3.80;;;12.80;67.10;;;;;;5025127;28;20045;-87
2022/04/17 08:11:18;;;;;;;4.18;3.25;;;12.80;67.20;;;;;;5006645;28;20029;-87
2022/04/17 08:13:46;;;;;;;7.53;3.50;;;12.90;66.80;;;;;;4990740;28;20037;-89
2022/04/17 08:16:28;;;;;;;5.18;3.28;;;13.00;66.50;;;;;;5025093;28;20037;-88
2022/04/17 08:19:24;;;;;;;4.28;2.58;;;13.00;66.30;;;;;;5024355;28;20048;-89
2022/04/17 08:21:51;;;;;;;5.00;3.17;;;13.10;66.00;;;;;;5017974;28;20046;-87
2022/04/17 08:24:19;;;;;;;6.10;3.50;;;13.10;65.50;;;;;;5004999;28;20029;-85
2022/04/17 08:26:45;;;;;;;6.03;3.45;;;13.20;65.50;;;;;;4988606;28;20048;-87
2022/04/17 08:29:12;;;;;;;5.78;3.40;;;13.30;65.60;;;;;;5000861;28;20046;-87
2022/04/17 08:31:39;;;;;;;5.47;3.58;;;13.30;65.00;;;;;;4991248;28;20077;-87
2022/04/17 08:34:05;;;;;;;4.93;2.83;;;13.30;64.80;;;;;;5024280;28;20038;-88
2022/04/17 08:36:32;;;;;;;6.10;3.45;;;13.30;65.10;;;;;;5023319;28;20042;-88
2022/04/17 08:38:58;;;;;;;5.38;3.17;;;13.50;65.70;;;;;;4993311;28;20037;-90
2022/04/17 08:41:27;;;;;;;4.28;2.67;;;13.60;65.20;;;;;;5043134;28;20508;-89
2022/04/17 08:43:54;;;;;;;4.93;2.80;;;13.70;65.30;;;;;;4992585;28;20038;-87
2022/04/17 08:46:20;;;;;;;4.93;3.08;;;13.90;65.60;;;;;;5020891;28;20045;-86
2022/04/17 08:48:49;;;;;;;4.22;2.58;;;14.10;65.60;;;;;;5021962;28;20030;-87
2022/04/17 08:51:16;;;;;;;5.00;2.83;;;14.30;65.70;;;;;;5035511;28;20037;-86
2022/04/17 08:53:45;;;;;;;5.05;3.00;;;14.60;65.10;;;;;;5033904;28;20041;-85
2022/04/17 08:56:11;;;;;;;3.65;2.63;;;14.70;65.00;;;;;;5028510;28;20042;-86
2022/04/17 08:58:39;;;;;;;4.97;2.80;;;14.80;64.80;;;;;;4984598;28;20029;-87
2022/04/17 09:01:05;;;;;;;5.20;3.67;;;15.00;64.10;;;;;;4991619;28;20050;-87
2022/04/17 09:03:32;;;;;;;5.13;3.15;;;15.00;63.40;;;;;;4997804;28;20476;-88
2022/04/17 09:05:59;;;;;;;3.67;2.45;;;15.00;63.70;;;;;;4986949;28;20040;-88
2022/04/17 09:08:26;;;;;;;5.05;3.28;;;15.10;63.60;;;;;;4988218;28;20036;-91
2022/04/17 09:10:54;;;;;;;3.45;2.67;;;15.20;62.80;;;;;;4972099;28;20030;-88
2022/04/17 09:13:33;;;;;;;3.92;2.58;;;15.30;62.70;;;;;;4989159;28;20033;-89
2022/04/17 09:16:04;;;;;;;6.75;2.55;;;15.40;63.00;;;;;;5017662;28;20037;-88
2022/04/17 09:18:32;;;;;;;5.28;2.38;;;15.50;62.70;;;;;;4958921;28;20045;-85
2022/04/17 09:21:27;;;;;;;4.07;2.63;;;15.60;62.40;;;;;;4973000;28;20030;-85
2022/04/17 09:24:11;;;;;;;3.05;1.80;;;15.60;62.30;;;;;;4957457;28;20038;-89
2022/04/17 09:27:31;;;;;;;4.53;2.40;;;15.70;62.30;;;;;;5022980;28;20053;-86
2022/04/17 09:30:50;;;;;;;7.22;2.47;;;15.90;61.20;;;;;;4978192;28;20046;-86
2022/04/17 09:33:42;;;;;;;3.78;2.03;;;15.90;61.50;;;;;;4955886;28;20038;-88
2022/04/17 09:36:33;;;;;;;4.47;2.17;;;16.10;62.00;;;;;;4966847;28;20050;-84
2022/04/17 09:39:31;;;;;;;;;;;16.20;59.30;;;;;;4965734;28;20087;-90
2022/04/17 09:42:53;;;;;;;3.83;2.55;;;16.20;59.90;;;;;;4954903;28;20491;-89
2022/04/17 09:45:59;;;;;;;4.55;2.22;;;16.30;59.60;;;;;;4926843;28;20050;-88
2022/04/17 09:49:16;;;;;;;3.55;1.75;;;16.30;59.30;;;;;;4892120;29;21147;-85
2022/04/17 09:52:31;;;;;;;4.35;2.45;;;16.30;58.70;;;;;;4973834;28;20046;-83
2022/04/17 10:06:22;;;;;;;;;;;;;;;;;;;;;
2022/04/17 10:09:56;;;;;;;2.95;1.80;;;17.10;56.90;;;;;;4833661;29;20064;-90
2022/04/17 10:13:25;;;;;;;5.13;1.60;;;17.20;57.30;;;;;;4790293;29;20100;-89
2022/04/17 10:16:38;;;;;;;3.85;1.50;;;17.40;57.00;;;;;;4868959;29;20052;-91
2022/04/17 10:19:54;;;;;;;2.97;1.60;;;17.40;56.90;;;;;;4910792;29;20047;-92
2022/04/17 10:22:25;;;;;;;2.42;1.30;;;17.60;56.30;;;;;;4878237;29;20036;-91
2022/04/17 10:24:55;;;;;;;3.58;2.00;;;17.80;56.70;;;;;;4882748;29;20090;-91
2022/04/17 10:27:29;;;;;;;2.45;1.55;;;18.00;56.50;;;;;;4896590;29;20039;-90
2022/04/17 10:30:12;;;;;;;5.30;2.22;;;18.20;55.80;;;;;;4877400;29;20401;-91
2022/04/17 10:33:00;;;;;;;3.28;1.70;;;18.50;55.00;;;;;;4882405;29;20392;-89
2022/04/17 10:35:36;;;;;;;3.78;2.67;;;18.60;54.40;;;;;;4881917;29;20024;-91
2022/04/17 10:38:26;;;;;;;3.75;1.50;;;18.60;54.60;;;;;;4882215;29;20032;-84
2022/04/17 10:41:02;;;;;;;4.60;3.22;;;18.70;55.20;;;;;;4898993;28;20026;-80
2022/04/17 10:43:34;;;;;;;4.00;2.35;;;18.80;54.20;;;;;;4937281;28;20031;-81
2022/04/17 10:46:14;;;;;;;3.88;2.53;;;19.00;53.80;;;;;;4944481;28;20077;-82
2022/04/17 10:48:51;;;;;;;4.82;2.88;;;19.20;54.80;;;;;;5011859;28;20046;-88
2022/04/17 10:51:51;;;;;;;7.68;3.58;;;19.50;54.10;;;;;;4984966;28;20059;-85
2022/04/17 10:54:18;;;;;;;3.95;2.80;;;20.00;52.80;;;;;;4987924;28;20037;-83
2022/04/17 10:57:00;;;;;;;5.00;2.92;;;20.20;52.10;;;;;;4997169;28;20405;-78
2022/04/17 10:59:31;;;;;;;3.50;2.67;;;20.40;50.20;;;;;;5010489;28;20052;-82
2022/04/17 11:02:19;;;;;;;5.50;3.30;;;20.50;50.00;;;;;;5030033;28;20436;-84
2022/04/17 11:04:55;;;;;;;4.35;3.30;;;20.60;50.00;;;;;;4993397;28;20048;-86
2022/04/17 11:07:30;;;;;;;4.72;3.13;;;20.70;49.40;;;;;;5008724;28;20052;-85
2022/04/17 11:10:10;;;;;;;10.75;4.10;;;20.90;50.10;;;;;;5002185;28;20033;-84
2022/04/17 11:13:06;;;;;;;3.78;2.40;;;21.30;49.50;;;;;;5023870;28;20039;-86
2022/04/17 11:15:32;;;;;;;3.97;2.30;;;21.70;47.40;;;;;;4994323;28;20112;-82
2022/04/17 11:18:01;;;;;;;3.78;1.88;;;21.90;47.20;;;;;;5024857;28;20040;-82
2022/04/17 11:21:05;;;;;;;2.30;1.65;;;21.90;44.50;;;;;;5022620;28;20048;-80
2022/04/17 11:24:01;;;;;;;3.53;1.52;;;22.10;45.70;;;;;;5010001;28;20044;-83
2022/04/17 11:27:15;;;;;;;3.67;1.85;;;22.50;44.10;;;;;;5025150;28;20485;-86
2022/04/17 11:30:15;;;;;;;2.43;1.53;;;22.70;43.30;;;;;;5020964;28;20496;-82
2022/04/17 11:33:09;;;;;;;;;;;22.70;42.20;;;;;;5008934;28;20272;-82
2022/04/17 11:36:51;;;;;;;3.10;1.52;;;22.80;42.70;;;;;;5002157;28;20389;-83
2022/04/17 11:43:47;;;;;;;;;;;;;;;;;;;;;
2022/04/17 11:47:14;;;;;;;2.92;1.88;;;23.60;41.00;;;;;;5005188;28;20149;-88
2022/04/17 11:49:59;;;;;;;3.90;1.73;;;23.80;40.30;;;;;;4911144;29;20051;-84
2022/04/17 11:53:33;;;;;;;2.75;1.50;;;23.80;40.90;;;;;;4920374;28;20038;-80
2022/04/17 11:56:39;;;;;;;2.67;1.48;;;24.00;39.90;;;;;;4959507;28;20057;-87
2022/04/17 11:59:27;;;;;;;4.50;1.15;;;24.10;39.70;;;;;;4948152;28;20418;-87
2022/04/17 12:02:25;;;;;;;3.15;1.90;;;24.50;40.50;;;;;;4935495;28;20034;-85
2022/04/17 12:06:04;;;;;;;3.47;1.80;;;24.80;40.60;;;;;;4961638;28;20050;-88
2022/04/17 12:10:40;;;;;;;2.60;1.73;;;25.10;39.80;;;;;;4921425;29;20046;-87
2022/04/17 12:13:36;;;;;;;4.45;2.03;;;25.20;39.70;;;;;;4921553;28;20046;-86
2022/04/17 12:16:42;;;;;;;2.83;1.60;;;25.30;39.80;;;;;;4978909;28;20027;-87
2022/04/17 12:19:43;;;;;;;;;;;25.50;39.80;;;;;;4976763;28;20398;-86
2022/04/17 12:22:24;;;;;;;4.78;1.95;;;25.60;38.90;;;;;;4958988;28;19911;-86
2022/04/17 12:25:01;;;;;;;3.65;1.75;;;25.90;38.70;;;;;;4963525;28;20035;-87
2022/04/17 12:27:37;;;;;;;2.60;1.25;;;26.10;38.40;;;;;;4963780;28;20086;-86
2022/04/17 12:30:30;;;;;;;4.00;1.73;;;26.30;37.60;;;;;;4977824;28;20444;-87
2022/04/17 12:32:59;;;;;;;2.58;1.50;;;26.40;36.70;;;;;;4967302;28;20022;-86
2022/04/17 12:36:05;;;;;;;3.53;1.58;;;26.30;37.60;;;;;;4947559;28;20045;-85
2022/04/17 12:38:39;;;;;;;2.88;1.77;;;26.60;37.60;;;;;;4949391;28;20041;-86
2022/04/17 12:41:26;;;;;;;3.13;2.13;;;27.00;36.70;;;;;;4937268;28;20065;-86
2022/04/17 12:43:53;;;;;;;3.22;1.60;;;27.20;36.10;;;;;;4985348;28;20038;-85
2022/04/17 12:46:28;;;;;;;2.05;1.50;;;27.30;36.00;;;;;;5015767;28;20046;-85
2022/04/17 12:49:24;;;;;;;3.35;2.05;;;27.50;36.40;;;;;;5004497;28;20037;-88
2022/04/17 12:51:57;;;;;;;3.75;2.50;;;27.90;35.90;;;;;;4988127;28;20120;-84
2022/04/17 12:54:38;;;;;;;4.60;2.42;;;28.30;35.50;;;;;;4979917;28;20041;-89
2022/04/17 12:57:20;;;;;;;3.55;2.20;;;28.50;34.10;;;;;;4984548;28;20037;-89
2022/04/17 12:59:51;;;;;;;2.33;2.00;;;28.50;34.00;;;;;;4981210;28;20030;-84
2022/04/17 13:02:26;;;;;;;3.03;2.35;;;28.20;33.00;;;;;;4967646;28;20133;-88
2022/04/17 13:05:03;;;;;;;3.00;1.85;;;28.00;34.10;;;;;;4975214;28;20046;-88
2022/04/17 13:08:11;;;;;;;3.13;2.08;;;27.90;33.40;;;;;;4966667;28;20042;-88
2022/04/17 13:11:06;;;;;;;2.55;1.70;;;27.90;34.00;;;;;;4980839;28;20042;-91
2022/04/17 13:13:43;;;;;;;3.30;1.90;;;28.10;33.30;;;;;;4982395;28;20030;-86
2022/04/17 13:17:35;;;;;;;2.40;1.40;;;28.20;33.60;;;;;;4973465;28;20358;-90
2022/04/17 13:21:00;;;;;;;;;;;;;;;;;;;;;
2022/04/17 13:23:46;;;;;;;2.75;1.67;;;29.40;33.70;;;;;;4973195;28;20419;-84
2022/04/17 13:26:13;;;;;;;2.47;1.50;;;29.80;32.60;;;;;;4968480;28;20051;-83
2022/04/17 13:28:39;;;;;;;2.35;1.38;;;29.70;31.30;;;;;;4953264;28;20030;-86
2022/04/17 13:31:06;;;;;;;2.97;1.88;;;29.60;32.80;;;;;;4936659;28;20030;-82
2022/04/17 13:33:33;;;;;;;2.85;1.30;;;29.80;30.40;;;;;;4967318;28;20481;-87
2022/04/17 13:36:16;;;;;;;2.55;1.30;;;29.40;30.10;;;;;;4954599;28;20042;-88
2022/04/17 13:39:10;;;;;;;2.40;1.25;;;29.10;30.40;;;;;;4967871;28;20058;-90
2022/04/17 13:41:43;;;;;;;3.60;1.20;;;29.00;30.10;;;;;;4953842;28;20057;-86
2022/04/17 13:44:12;;;;;;;1.70;1.13;;;29.10;30.90;;;;;;4955454;28;20081;-87
2022/04/17 13:46:41;;;;;;;2.38;1.55;;;29.50;30.30;;;;;;4970474;28;20031;-89
2022/04/17 13:49:14;;;;;;;2.03;1.30;;;29.60;30.00;;;;;;4969300;28;20042;-88
2022/04/17 13:51:54;;;;;;;4.85;1.90;;;29.90;29.70;;;;;;4986533;28;20398;-89
2022/04/17 13:54:35;;;;;;;3.13;1.65;;;30.00;29.60;;;;;;5018191;28;20392;-89
2022/04/17 13:57:22;;;;;;;2.72;1.70;;;30.00;30.20;;;;;;4986428;28;20057;-90
2022/04/17 13:59:49;;;;;;;2.42;1.45;;;30.30;29.70;;;;;;5006845;28;20096;-87
2022/04/17 14:02:16;;;;;;;4.63;4.22;;;30.40;29.60;;;;;;5010816;28;20033;-86
2022/04/17 14:04:52;;;;;;;4.40;4.00;;;30.40;29.00;;;;;;5013524;28;20041;-87
2022/04/17 14:07:19;;;;;;;3.55;2.13;;;30.30;29.00;;;;;;4980249;28;20033;-86
2022/04/17 14:09:48;;;;;;;4.47;2.80;;;30.00;28.90;;;;;;4992848;28;20060;-86
2022/04/17 14:12:15;;;;;;;4.13;3.53;;;30.00;29.00;;;;;;4994722;28;20377;-87
2022/04/17 14:14:45;;;;;;;3.30;2.28;;;29.70;29.30;;;;;;5015142;28;20069;-87
2022/04/17 14:17:26;;;;;;;2.25;1.70;;;29.60;29.40;;;;;;5002800;28;20037;-87
2022/04/17 14:20:34;;;;;;;2.85;2.25;;;29.70;30.00;;;;;;5002907;28;20040;-89
2022/04/17 14:23:22;;;;;;;2.97;2.25;;;30.30;29.80;;;;;;5025075;28;20032;-82
2022/04/17 14:26:03;;;;;;;3.33;2.22;;;30.30;29.00;;;;;;4996425;28;20388;-90